WetterOnline ( https://www.wetteronline.de )

Wetter aktuell Fischland

Aktuelles Wetter: Barth (7m)

6-stündlich | Neueste Meldungen
Ortszeit Temperatur Wetter
Sa, 01.10. 20:00 11.7° C bewölkt
Sa, 01.10. 14:00 10.8° C Regen
Sa, 01.10. 8:00 8.4° C bedeckt
Sa, 01.10. 2:00 8.4° C leicht bewölkt
Fr, 30.09. 20:00 11.4° C wolkenlos
Fr, 30.09. 14:00 15.1° C wolkig
Fr, 30.09. 8:00 8.9° C bedeckt
Fr, 30.09. 2:00 8.1° C leicht bewölkt
Ortszeit Temperatur Wetter
So, 02.10. 1:30 12.3° C fast wolkenlos
So, 02.10. 1:20 12.3° C fast wolkenlos
So, 02.10. 1:10 12.2° C wolkenlos
So, 02.10. 1:00 12.2° C fast wolkenlos
So, 02.10. 0:50 12.2° C fast wolkenlos
So, 02.10. 0:40 12.2° C fast wolkenlos
So, 02.10. 0:30 12.4° C leicht bewölkt
So, 02.10. 0:00 12.5° C leicht bewölkt
Sa, 01.10. 23:30 12.4° C fast wolkenlos
Sa, 01.10. 23:00 12.9° C bewölkt
Sa, 01.10. 22:30 12.8° C Regen
Ortszeit Relative Feuchte Sichtweite
Sa, 01.10. 20:00 90% >70 km
Sa, 01.10. 14:00 90% 50 km
Sa, 01.10. 8:00 84% 45 km
Sa, 01.10. 2:00 85% 35 km
Fr, 30.09. 20:00 77% 35 km
Fr, 30.09. 14:00 62% 65 km
Fr, 30.09. 8:00 92% 28 km
Fr, 30.09. 2:00 94% 12 km
Ortszeit Relative Feuchte Sichtweite
So, 02.10. 1:30 90% 28 km
So, 02.10. 1:20 90% -
So, 02.10. 1:10 89% -
So, 02.10. 1:00 91% 28 km
So, 02.10. 0:50 91% -
So, 02.10. 0:40 91% -
So, 02.10. 0:30 91% 30 km
So, 02.10. 0:00 92% 30 km
Sa, 01.10. 23:30 91% 35 km
Sa, 01.10. 23:00 90% 40 km
Sa, 01.10. 22:30 94% 5.0 km
Ortszeit Niederschlagsmenge Niederschlagsart
Sa, 01.10. 20:00 2 l/m2 in 12 Std. Regen
Sa, 01.10. 14:00 1 l/m2 in 6 Std. Regen
Sa, 01.10. 8:00 0.0 l/m2 in 12 Std. -
Sa, 01.10. 2:00 0.0 l/m2 in 6 Std. -
Fr, 30.09. 20:00 0.0 l/m2 in 12 Std. -
Fr, 30.09. 14:00 0.0 l/m2 in 6 Std. -
Fr, 30.09. 8:00 0.1 l/m2 in 12 Std. Regen
Fr, 30.09. 2:00 0.1 l/m2 in 6 Std. Regen
Ortszeit Niederschlagsmenge Niederschlagsart
So, 02.10. 1:30 0.0 l/m2 in 1 Std. -
So, 02.10. 1:20 keine Meldung -
So, 02.10. 1:10 keine Meldung -
So, 02.10. 1:00 0.0 l/m2 in 1 Std. -
So, 02.10. 0:50 keine Meldung -
So, 02.10. 0:40 keine Meldung -
So, 02.10. 0:30 0.0 l/m2 in 1 Std. -
So, 02.10. 0:00 0.2 l/m2 in 1 Std. Regen
Sa, 01.10. 23:30 0.0 l/m2 in 1 Std. -
Sa, 01.10. 23:00 1.8 l/m2 in 1 Std. Regen
Sa, 01.10. 22:30 1.5 l/m2 in 1 Std. -
Ortszeit Stärke Spitze Richtung
km/h Bft. km/h Grad Sektor
Sa, 01.10. 20:00 13 3 37 250° W
Sa, 01.10. 14:00 18 3 43 190° S
Sa, 01.10. 8:00 15 3 24 160° S
Sa, 01.10. 2:00 13 3 19 160° S
Fr, 30.09. 20:00 9 2 33 160° S
Fr, 30.09. 14:00 22 4 36 200° S
Fr, 30.09. 8:00 11 2 14 150° SO
Fr, 30.09. 2:00 4 1 18 140° SO
Ortszeit Stärke Spitze Richtung
km/h Bft. km/h Grad Sektor
So, 02.10. 1:30 24 4 33 260° W
So, 02.10. 1:20 24 4 - 260° W
So, 02.10. 1:10 22 4 - 260° W
So, 02.10. 1:00 22 4 35 260° W
So, 02.10. 0:50 22 4 - 260° W
So, 02.10. 0:40 24 4 - 260° W
So, 02.10. 0:30 25 4 36 260° W
So, 02.10. 0:00 24 4 35 260° W
Sa, 01.10. 23:30 22 4 36 260° W
Sa, 01.10. 23:00 24 4 35 270° W
Sa, 01.10. 22:30 18 3 36 280° W
Ortszeit Untergrenze Bedeckung Gattung
total tief tief mittel hoch
Sa, 01.10. 20:00 690 m 7/8 6/8 - - -
Sa, 01.10. 14:00 360 m 8/8 8/8 - - -
Sa, 01.10. 8:00 4500 m 8/8 8/8 - - -
Sa, 01.10. 2:00 10500 m 4/8 0/8 - - -
Fr, 30.09. 20:00 - 0/8 0/8 - - -
Fr, 30.09. 14:00 990 m 5/8 5/8 - - -
Fr, 30.09. 8:00 1140 m 8/8 8/8 - - -
Fr, 30.09. 2:00 1500 m 4/8 1/8 - - -
Ortszeit Bedeckungsgrad in Achtel und Wolkenuntergrenze
So, 02.10. 1:30 1(570m)
So, 02.10. 1:20 1(570m)
So, 02.10. 1:10 keine Wolken
So, 02.10. 1:00 1(540m)
So, 02.10. 0:50 1(540m)
So, 02.10. 0:40 1
So, 02.10. 0:30 3(540m) 3(1800m)
So, 02.10. 0:00 1(510m)
Sa, 01.10. 23:30 1(630m)
Sa, 01.10. 23:00 4(540m) 7(750m) 7(1800m)
Sa, 01.10. 22:30 3(480m) 6(750m) 7(1800m)
Ortszeit Luftdruck NN (hPa) Tendenz (hPa in 3 Std.)
Sa, 01.10. 20:00 1002 + 2,0
Sa, 01.10. 14:00 1001 - 1,9
Sa, 01.10. 8:00 1005 - 1,8
Sa, 01.10. 2:00 1008 - 1,2
Fr, 30.09. 20:00 1010 0,0
Fr, 30.09. 14:00 1010 + 0,1
Fr, 30.09. 8:00 1009 + 1,3
Fr, 30.09. 2:00 1007 + 0,9
Ortszeit Luftdruck NN (hPa) Tendenz (hPa in 3 Std.)
So, 02.10. 1:30 1006 + 2,2
So, 02.10. 1:20 1006 keine Meldung
So, 02.10. 1:10 1006 keine Meldung
So, 02.10. 1:00 1006 + 2,4
So, 02.10. 0:50 1006 keine Meldung
So, 02.10. 0:40 1006 keine Meldung
So, 02.10. 0:30 1005 + 2,3
So, 02.10. 0:00 1005 + 2,1
Sa, 01.10. 23:30 1004 + 2,1
Sa, 01.10. 23:00 1004 + 2,4
Sa, 01.10. 22:30 1004 + 2,5
Ortszeit Schneehöhe (cm)
Sa, 01.10. 20:00 0
Sa, 01.10. 14:00 0
Sa, 01.10. 8:00 0
Sa, 01.10. 2:00 0
Fr, 30.09. 20:00 0
Fr, 30.09. 14:00 0
Fr, 30.09. 8:00 0
Fr, 30.09. 2:00 0
Ortszeit Schneehöhe (cm)
So, 02.10. 1:30 0
So, 02.10. 1:20 0
So, 02.10. 1:10 0
So, 02.10. 1:00 0
So, 02.10. 0:50 0
So, 02.10. 0:40 0
So, 02.10. 0:30 0
So, 02.10. 0:00 0
Sa, 01.10. 23:30 0
Sa, 01.10. 23:00 0
Sa, 01.10. 22:30 0
Link zu dieser Seite / Seite empfehlen

Das Wetter in ...